Time;durP1;ratioP1;P1;durP2;ratioP2;P2;SDS_P1;SDS_P2;PMS_P1;PMS_P2;Temp;Humidity;BMP_temperature;BMP_pressure;BME280_temperature;BME280_humidity;BME280_pressure;Samples;Min_cycle;Max_cycle;Signal;HPM_P1;HPM_P2
2021/10/31 00:00:34;;;;;;;0.75;0.65;;;;;;;9.29;72.69;98780.91;6278061;22;20058;-78
2021/10/31 00:03:00;;;;;;;0.80;0.40;;;;;;;9.25;72.82;98779.88;6238235;22;20007;-86
2021/10/31 00:05:31;;;;;;;0.85;0.50;;;;;;;9.35;72.77;98795.28;6262751;22;20061;-84
2021/10/31 00:08:07;;;;;;;0.98;0.70;;;;;;;9.46;73.22;98802.16;6237863;22;20030;-84
2021/10/31 00:10:55;;;;;;;;;;;;;;;;;;;;;
2021/10/31 00:13:35;;;;;;;1.23;0.43;;;;;;;9.52;72.96;98790.06;6267574;22;20038;-84
2021/10/31 00:16:30;;;;;;;2.58;0.50;;;;;;;9.59;73.26;98785.03;6264967;22;20003;-86
2021/10/31 00:19:14;;;;;;;;;;;;;;;;;;;;;
2021/10/31 00:21:40;;;;;;;0.75;0.57;;;;;;;9.65;73.67;98779.47;6282249;22;20022;-80
2021/10/31 00:24:09;;;;;;;1.35;0.40;;;;;;;9.57;73.81;98764.59;6282365;22;20008;-79
2021/10/31 00:26:47;;;;;;;;;;;;;;;;;;;;;
2021/10/31 00:29:20;;;;;;;0.55;0.55;;;;;;;9.69;73.63;98772.31;6283270;22;20027;-82
2021/10/31 00:32:25;;;;;;;;;;;;;;;;;;;;;
2021/10/31 00:35:33;;;;;;;3.25;0.40;;;;;;;9.53;73.07;98739.81;6285643;22;20039;-81
2021/10/31 00:38:04;;;;;;;0.95;0.55;;;;;;;9.74;73.42;98747.66;6254462;22;20007;-80
2021/10/31 00:40:31;;;;;;;0.85;0.25;;;;;;;9.72;73.71;98739.75;6281668;22;20004;-80
2021/10/31 00:42:57;;;;;;;1.33;0.40;;;;;;;9.70;73.43;98730.28;6228343;22;20007;-76
2021/10/31 00:46:18;;;;;;;0.73;0.30;;;;;;;9.78;73.52;98721.38;6280034;22;20313;-81
2021/10/31 00:49:04;;;;;;;0.57;0.35;;;;;;;9.85;73.87;98710.84;6238005;22;20000;-80
2021/10/31 00:51:33;;;;;;;1.30;0.85;;;;;;;9.93;74.09;98701.97;6283908;22;20000;-79
2021/10/31 00:54:02;;;;;;;1.58;0.40;;;;;;;10.06;74.31;98694.06;6256120;22;20075;-80
2021/10/31 00:56:35;;;;;;;0.50;0.22;;;;;;;10.24;73.49;98706.78;6251168;22;20003;-79
2021/10/31 00:59:12;;;;;;;0.47;0.10;;;;;;;10.33;73.50;98692.41;6247728;22;20058;-77
2021/10/31 01:01:48;;;;;;;;;;;;;;;;;;;;;
2021/10/31 01:04:30;;;;;;;;;;;;;;;;;;;;;
2021/10/31 01:07:30;;;;;;;;;;;;;;;;;;;;;
2021/10/31 01:10:41;;;;;;;2.03;0.10;;;;;;;10.79;73.21;98689.47;6157719;22;20012;-79
2021/10/31 01:13:19;;;;;;;;;;;;;;;;;;;;;
2021/10/31 01:17:15;;;;;;;0.20;0.10;;;;;;;10.88;73.33;98667.66;6281203;22;20096;-79
2021/10/31 01:19:43;;;;;;;;;;;;;;;;;;;;;
2021/10/31 01:22:43;;;;;;;1.10;0.30;;;;;;;10.92;73.10;98652.25;6280733;22;20587;-79
2021/10/31 01:25:25;;;;;;;0.43;0.10;;;;;;;10.92;73.19;98640.50;6288046;22;20000;-80
2021/10/31 01:28:17;;;;;;;4.28;0.32;;;;;;;10.95;73.02;98635.22;6291687;22;20020;-80
2021/10/31 01:30:51;;;;;;;0.95;0.25;;;;;;;10.89;72.88;98622.78;6297071;22;19988;-79
2021/10/31 01:33:35;;;;;;;2.10;0.30;;;;;;;10.95;72.99;98621.53;6271335;22;20177;-80
2021/10/31 01:36:13;;;;;;;0.30;0.30;;;;;;;10.91;73.00;98609.63;6279027;22;20015;-80
2021/10/31 01:38:46;;;;;;;0.30;0.30;;;;;;;11.04;73.63;98612.56;6289314;22;20441;-79
2021/10/31 01:41:36;;;;;;;0.43;0.35;;;;;;;11.12;72.84;98611.81;6313545;22;19999;-80
2021/10/31 01:44:58;;;;;;;1.63;0.30;;;;;;;11.16;72.91;98610.06;6313439;22;20022;-80
2021/10/31 01:47:55;;;;;;;;;;;;;;;;;;;;;
2021/10/31 01:50:42;;;;;;;0.43;0.20;;;;;;;11.35;73.04;98596.16;6154070;23;20080;-79
2021/10/31 01:53:25;;;;;;;0.20;0.10;;;;;;;11.36;72.69;98581.34;6276836;22;19999;-80
2021/10/31 01:56:13;;;;;;;0.32;0.20;;;;;;;11.43;72.28;98572.66;6291952;22;20055;-78
2021/10/31 01:58:45;;;;;;;0.47;0.30;;;;;;;11.43;72.55;98570.72;6308989;22;20054;-75
2021/10/31 02:01:14;;;;;;;1.35;0.30;;;;;;;11.42;72.35;98558.19;6282365;22;20003;-75
2021/10/31 02:03:50;;;;;;;;;;;;;;;;;;;;;
2021/10/31 02:06:20;;;;;;;0.98;0.47;;;;;;;11.43;73.20;98543.38;6288057;22;20094;-78
2021/10/31 02:08:48;;;;;;;0.65;0.10;;;;;;;11.29;72.51;98516.13;6283086;22;20029;-78
2021/10/31 02:11:17;;;;;;;3.97;0.20;;;;;;;11.35;72.93;98520.34;6284379;22;20290;-78
2021/10/31 02:13:46;;;;;;;1.65;0.20;;;;;;;11.60;72.94;98531.66;6285060;22;20422;-77
2021/10/31 02:16:25;;;;;;;;;;;;;;;;;;;;;
2021/10/31 02:19:04;;;;;;;0.43;0.17;;;;;;;11.59;73.12;98502.66;6311097;22;20026;-78
2021/10/31 02:24:55;;;;;;;5.75;0.80;;;;;;;11.62;73.09;98477.41;6218253;23;20009;-77
2021/10/31 02:27:32;;;;;;;1.45;0.57;;;;;;;11.68;73.69;98465.19;6285319;22;20007;-76
2021/10/31 02:30:02;;;;;;;3.88;0.80;;;;;;;11.82;73.63;98466.94;6310592;22;19999;-76
2021/10/31 02:32:47;;;;;;;5.07;0.30;;;;;;;11.97;74.70;98480.19;6312255;22;20056;-77
2021/10/31 02:35:58;;;;;;;1.10;0.57;;;;;;;12.08;74.63;98477.94;6311941;22;20333;-77
2021/10/31 02:38:31;;;;;;;3.97;0.47;;;;;;;12.07;74.50;98461.81;6184294;23;20001;-76
2021/10/31 02:44:42;;;;;;;9.18;1.20;;;;;;;12.17;75.59;98469.69;6216792;23;20015;-77
2021/10/31 02:54:38;;;;;;;10.43;1.23;;;;;;;12.42;77.87;98426.13;6194931;23;20009;-78
2021/10/31 02:57:32;;;;;;;8.55;1.40;;;;;;;12.42;77.63;98417.91;6197119;23;20452;-78
2021/10/31 03:00:11;;;;;;;13.77;1.63;;;;;;;12.58;77.61;98429.94;6291594;22;20003;-80
2021/10/31 03:06:06;;;;;;;5.45;1.02;;;;;;;12.53;77.54;98364.34;6265416;22;20003;-81
2021/10/31 03:08:45;;;;;;;;;;;;;;;;;;;;;
2021/10/31 03:12:15;;;;;;;4.07;0.90;;;;;;;12.84;76.69;98393.38;6300238;22;19999;-80
2021/10/31 03:15:31;;;;;;;3.00;0.70;;;;;;;12.88;77.49;98391.59;6174217;23;20001;-80
2021/10/31 03:22:07;;;;;;;8.15;1.23;;;;;;;12.84;77.42;98338.53;6199084;23;20104;-80
2021/10/31 03:25:27;;;;;;;9.02;0.68;;;;;;;12.92;77.87;98349.44;6173029;23;20017;-79
2021/10/31 03:39:35;;;;;;;;;;;;;;;;;;;;;
2021/10/31 03:46:22;;;;;;;6.93;0.93;;;;;;;12.56;80.39;98289.66;5930852;24;20081;-78
2021/10/31 03:52:33;;;;;;;5.80;1.17;;;;;;;12.59;79.91;98269.78;6017787;23;20072;-77
2021/10/31 04:05:17;;;;;;;11.73;1.35;;;;;;;12.67;79.04;98240.69;6031173;23;20014;-79
2021/10/31 04:07:48;;;;;;;6.57;1.00;;;;;;;12.64;79.08;98217.47;6035366;23;20010;-78
2021/10/31 04:10:51;;;;;;;3.95;0.98;;;;;;;12.52;79.18;98210.00;6133365;23;20005;-77
2021/10/31 04:14:06;;;;;;;4.18;0.75;;;;;;;12.77;78.71;98214.84;6281530;22;20007;-76
2021/10/31 04:17:38;;;;;;;2.00;0.70;;;;;;;12.88;78.98;98211.34;6282167;22;20000;-78
2021/10/31 04:24:30;;;;;;;7.28;0.88;;;;;;;12.93;78.22;98188.38;6281869;22;20022;-76
2021/10/31 04:30:58;;;;;;;8.75;1.10;;;;;;;12.99;78.29;98216.41;6282428;22;20094;-78
2021/10/31 04:36:52;;;;;;;4.25;0.93;;;;;;;12.77;78.32;98149.00;6295192;22;20350;-77
2021/10/31 04:40:20;;;;;;;;;;;;;;;;;;;;;
2021/10/31 04:42:46;;;;;;;10.60;1.20;;;;;;;12.52;80.50;98141.47;6199463;22;20109;-77
2021/10/31 04:45:12;;;;;;;8.82;1.15;;;;;;;12.45;80.51;98121.22;6256010;22;20007;-77
2021/10/31 04:51:02;;;;;;;10.13;0.57;;;;;;;12.26;81.89;98102.50;6119974;23;20049;-76
2021/10/31 04:53:39;;;;;;;;;;;;;;;;;;;;;
2021/10/31 04:56:15;;;;;;;5.10;0.55;;;;;;;12.27;82.49;98069.28;6283438;22;20023;-75
2021/10/31 05:02:11;;;;;;;10.77;0.90;;;;;;;12.17;84.12;98077.91;6159872;23;20060;-76
2021/10/31 05:12:28;;;;;;;8.65;1.00;;;;;;;12.02;84.83;98071.88;6016557;23;20540;-76
2021/10/31 05:14:56;;;;;;;3.53;0.85;;;;;;;12.07;84.97;98039.94;6187260;23;20016;-76
2021/10/31 05:17:22;;;;;;;6.40;0.90;;;;;;;12.07;84.55;98026.25;6155203;23;20016;-76
2021/10/31 05:20:07;;;;;;;;;;;;;;;;;;;;;
2021/10/31 05:22:49;;;;;;;;;;;;;;;;;;;;;
2021/10/31 05:25:16;;;;;;;9.20;0.63;;;;;;;12.12;84.77;98006.84;6210748;23;20083;-76
2021/10/31 05:27:42;;;;;;;3.60;0.90;;;;;;;12.14;84.89;98002.66;6205645;23;20455;-76
2021/10/31 05:30:10;;;;;;;8.90;1.08;;;;;;;12.15;85.42;98000.69;6243428;22;20004;-77
2021/10/31 05:32:46;;;;;;;3.60;0.57;;;;;;;12.09;85.34;97966.44;6272846;22;20061;-76
2021/10/31 05:35:11;;;;;;;3.70;0.50;;;;;;;12.08;85.46;97973.88;6274082;22;20003;-77
2021/10/31 05:38:06;;;;;;;2.63;0.65;;;;;;;12.08;85.26;97941.00;6261738;22;20096;-77
2021/10/31 05:41:36;;;;;;;2.78;0.30;;;;;;;12.09;86.00;97955.47;6268244;22;20007;-76
2021/10/31 05:44:02;;;;;;;2.33;0.52;;;;;;;11.89;85.73;97919.56;6198464;23;20013;-76
2021/10/31 05:46:31;;;;;;;0.47;0.20;;;;;;;12.04;85.94;97951.81;6301212;22;20010;-75
2021/10/31 05:48:57;;;;;;;1.20;0.32;;;;;;;12.11;86.12;97953.22;6329738;22;20003;-75
2021/10/31 05:51:33;;;;;;;;;;;;;;;;;;;;;
2021/10/31 05:54:09;;;;;;;;;;;;;;;;;;;;;
2021/10/31 05:56:36;;;;;;;2.42;0.57;;;;;;;11.96;86.61;97903.41;6308032;22;20074;-76
2021/10/31 05:59:01;;;;;;;0.50;0.28;;;;;;;11.98;86.84;97898.38;6280295;22;20003;-75
2021/10/31 06:01:27;;;;;;;4.63;0.30;;;;;;;12.08;87.00;97916.34;6305792;22;20038;-75
2021/10/31 06:03:52;;;;;;;2.38;0.40;;;;;;;12.04;87.08;97888.81;6227854;22;20094;-76
2021/10/31 06:06:23;;;;;;;7.20;0.57;;;;;;;12.10;86.91;97907.78;6307220;22;20023;-75
2021/10/31 06:08:49;;;;;;;2.97;0.98;;;;;;;12.05;87.33;97873.19;6304379;22;20334;-76
2021/10/31 06:11:16;;;;;;;1.33;0.20;;;;;;;12.08;86.80;97888.16;6278267;22;20081;-74
2021/10/31 06:13:42;;;;;;;1.08;0.20;;;;;;;12.09;87.56;97859.59;6305164;22;20034;-75
2021/10/31 06:16:08;;;;;;;3.92;1.00;;;;;;;12.09;87.27;97928.09;6277751;22;20003;-75
2021/10/31 06:18:34;;;;;;;2.35;0.65;;;;;;;12.10;87.31;97866.69;6277088;22;20056;-77
2021/10/31 06:21:01;;;;;;;4.45;0.30;;;;;;;12.10;88.00;97831.09;6278730;22;20426;-75
2021/10/31 06:23:29;;;;;;;3.38;0.77;;;;;;;12.11;87.72;97824.47;6277096;22;20007;-76
2021/10/31 06:25:55;;;;;;;3.65;0.30;;;;;;;12.13;87.88;97841.38;6306244;22;19999;-76
2021/10/31 06:28:20;;;;;;;3.67;0.40;;;;;;;12.23;88.13;97857.38;6307387;22;20033;-77
2021/10/31 06:30:46;;;;;;;1.08;0.22;;;;;;;12.28;88.19;97840.72;6307690;22;20324;-77
2021/10/31 06:33:11;;;;;;;1.50;0.20;;;;;;;12.29;88.04;97833.28;6280623;22;20011;-74
2021/10/31 06:35:39;;;;;;;1.40;0.55;;;;;;;12.45;88.59;97831.47;6254713;22;20075;-76
2021/10/31 06:38:09;;;;;;;3.60;1.33;;;;;;;12.43;88.51;97822.81;6280119;22;20513;-75
2021/10/31 06:40:35;;;;;;;2.45;0.73;;;;;;;12.31;88.29;97825.50;6308063;22;20004;-74
2021/10/31 06:43:00;;;;;;;1.15;0.80;;;;;;;12.31;88.64;97785.22;6281839;22;20311;-74
2021/10/31 06:45:26;;;;;;;1.17;0.60;;;;;;;12.50;88.30;97811.25;6283673;22;20114;-73
2021/10/31 06:47:52;;;;;;;3.33;0.85;;;;;;;12.57;88.34;97800.50;6308842;22;20382;-74
2021/10/31 06:50:19;;;;;;;9.00;2.03;;;;;;;12.56;88.72;97775.06;6280747;22;20038;-74
2021/10/31 06:52:55;;;;;;;;;;;;;;;;;;;;;
2021/10/31 06:55:23;;;;;;;8.48;0.95;;;;;;;12.70;89.21;97788.41;6307929;22;20078;-76
2021/10/31 06:57:49;;;;;;;6.63;1.75;;;;;;;12.65;89.09;97755.75;6281272;22;20003;-75
2021/10/31 07:00:15;;;;;;;4.00;0.45;;;;;;;12.63;88.85;97776.41;6279039;22;20090;-77
2021/10/31 07:02:41;;;;;;;3.97;0.50;;;;;;;12.57;88.69;97762.13;6304406;22;19999;-75
2021/10/31 07:05:07;;;;;;;2.92;1.08;;;;;;;12.53;88.90;97744.81;6308887;22;20330;-74
2021/10/31 07:07:32;;;;;;;4.15;0.32;;;;;;;12.52;89.06;97733.03;6280348;22;20023;-76
2021/10/31 07:09:58;;;;;;;3.03;0.30;;;;;;;12.40;89.37;97725.63;6279105;22;20310;-74
2021/10/31 07:12:26;;;;;;;1.77;0.45;;;;;;;12.33;89.26;97719.91;6308035;22;20077;-73
2021/10/31 07:14:59;;;;;;;0.63;0.22;;;;;;;12.46;89.63;97722.66;6256673;22;20414;-73
2021/10/31 07:17:26;;;;;;;2.35;0.10;;;;;;;12.49;89.39;97700.03;6279624;22;19995;-75
2021/10/31 07:19:59;;;;;;;0.40;0.30;;;;;;;12.53;89.90;97673.53;6308479;22;19999;-74
2021/10/31 07:22:30;;;;;;;1.00;0.60;;;;;;;12.52;89.34;97677.41;6275900;22;20006;-72
2021/10/31 07:24:57;;;;;;;5.43;0.50;;;;;;;12.37;89.20;97671.50;6302568;22;20015;-73
2021/10/31 07:27:25;;;;;;;3.00;0.55;;;;;;;12.48;90.22;97660.84;6299943;22;20015;-73
2021/10/31 07:29:50;;;;;;;1.52;0.30;;;;;;;12.52;89.57;97652.75;6276211;22;20009;-75
2021/10/31 07:32:17;;;;;;;0.20;0.10;;;;;;;12.52;89.80;97639.03;6284115;22;20429;-77
2021/10/31 07:34:44;;;;;;;0.57;0.30;;;;;;;12.39;89.54;97608.13;6234556;22;20495;-74
2021/10/31 07:37:13;;;;;;;0.93;0.30;;;;;;;12.61;89.59;97625.97;6283846;22;20452;-75
2021/10/31 07:39:44;;;;;;;3.67;0.60;;;;;;;12.54;89.34;97582.75;6314112;22;20003;-75
2021/10/31 07:42:11;;;;;;;0.22;0.20;;;;;;;12.57;90.13;97575.75;6282628;22;20058;-77
2021/10/31 07:44:40;;;;;;;1.27;0.52;;;;;;;12.74;90.21;97597.38;6287419;22;20003;-75
2021/10/31 07:47:05;;;;;;;0.73;0.40;;;;;;;12.61;89.93;97556.66;6313214;22;20415;-73
2021/10/31 07:49:31;;;;;;;0.52;0.40;;;;;;;12.78;89.77;97530.88;6311515;22;20418;-75
2021/10/31 07:51:56;;;;;;;0.60;0.30;;;;;;;12.81;90.21;97500.03;6308511;22;20078;-75
2021/10/31 07:54:26;;;;;;;0.32;0.20;;;;;;;12.63;89.67;97469.38;6308245;22;19998;-74
2021/10/31 07:57:01;;;;;;;1.45;0.30;;;;;;;12.71;89.84;97443.75;6286967;22;20019;-74
2021/10/31 07:59:27;;;;;;;;;;;;;;;12.83;89.98;97429.94;6258065;22;20013;-72
2021/10/31 08:01:52;;;;;;;0.43;0.20;;;;;;;12.72;90.21;97415.97;6277670;22;19990;-73
2021/10/31 08:04:18;;;;;;;1.65;0.30;;;;;;;12.64;89.52;97389.53;6277435;22;20463;-73
2021/10/31 08:06:44;;;;;;;0.20;0.10;;;;;;;12.76;89.67;97399.59;6275405;22;20094;-73
2021/10/31 08:09:10;;;;;;;0.15;0.00;;;;;;;12.81;90.09;97365.66;6277162;22;20038;-72
2021/10/31 08:11:35;;;;;;;0.17;0.17;;;;;;;12.78;89.72;97338.97;6305741;22;20439;-75
2021/10/31 08:14:01;;;;;;;1.85;0.15;;;;;;;12.82;89.32;97315.13;6303640;22;20086;-74
2021/10/31 08:16:27;;;;;;;1.35;0.50;;;;;;;12.70;89.65;97300.41;6278209;22;20448;-74
2021/10/31 08:18:52;;;;;;;3.85;0.40;;;;;;;12.74;89.88;97290.28;6277501;22;20007;-74
2021/10/31 08:21:19;;;;;;;2.45;0.88;;;;;;;12.78;89.88;97314.28;6303676;22;20007;-73
2021/10/31 08:23:45;;;;;;;6.60;1.10;;;;;;;12.79;90.49;97263.75;6254526;22;20011;-73
2021/10/31 08:26:10;;;;;;;1.45;0.77;;;;;;;12.79;90.41;97263.75;6280573;22;20030;-73
2021/10/31 08:28:39;;;;;;;3.50;1.48;;;;;;;12.92;90.76;97235.06;6277083;22;20338;-73
2021/10/31 08:31:05;;;;;;;7.25;0.77;;;;;;;13.00;90.72;97192.91;6303828;22;20011;-74
2021/10/31 08:33:33;;;;;;;3.50;1.25;;;;;;;13.02;90.69;97133.00;6303071;22;20299;-75
2021/10/31 08:35:59;;;;;;;3.85;1.08;;;;;;;13.10;90.69;97051.66;6250615;22;20076;-75
2021/10/31 08:38:25;;;;;;;4.70;1.17;;;;;;;12.94;90.82;97183.41;6305697;22;20019;-76
2021/10/31 08:40:53;;;;;;;7.43;1.00;;;;;;;13.03;90.13;97109.91;6304933;22;19999;-74
2021/10/31 08:43:20;;;;;;;14.38;3.00;;;;;;;13.03;90.49;97181.22;6306538;22;20064;-76
2021/10/31 08:45:49;;;;;;;4.68;1.00;;;;;;;12.69;89.89;97224.78;6306690;22;20007;-76
2021/10/31 08:48:16;;;;;;;2.78;0.20;;;;;;;12.35;88.72;97339.50;6276665;22;20013;-76
2021/10/31 08:50:42;;;;;;;2.55;0.30;;;;;;;12.05;88.98;97334.41;6304911;22;20003;-76
2021/10/31 08:53:08;;;;;;;0.57;0.13;;;;;;;11.82;89.53;97284.09;6251378;22;20329;-73
2021/10/31 08:55:35;;;;;;;0.10;0.00;;;;;;;12.00;90.26;97307.31;6302252;22;20078;-73
2021/10/31 08:58:06;;;;;;;1.17;0.00;;;;;;;12.60;90.68;97385.09;6300338;22;20003;-74
2021/10/31 09:00:32;;;;;;;0.50;0.13;;;;;;;13.34;89.40;97423.72;6304891;22;20010;-73
2021/10/31 09:02:57;;;;;;;0.20;0.08;;;;;;;13.98;87.22;97470.22;6277351;22;20361;-74
2021/10/31 09:05:23;;;;;;;0.00;0.00;;;;;;;14.51;84.94;97477.13;6251305;22;20021;-73
2021/10/31 09:07:48;;;;;;;0.22;0.13;;;;;;;14.36;83.09;97534.59;6281565;22;20105;-72
2021/10/31 09:10:14;;;;;;;0.65;0.05;;;;;;;13.99;83.92;97528.69;6292943;22;20015;-75
2021/10/31 09:12:40;;;;;;;0.85;0.00;;;;;;;13.78;84.46;97533.38;6319762;22;20128;-73
2021/10/31 09:15:06;;;;;;;0.20;0.10;;;;;;;13.59;85.50;97519.56;6311170;22;19999;-73
2021/10/31 09:17:31;;;;;;;0.68;0.20;;;;;;;13.53;86.11;97556.69;6252071;22;20278;-73
2021/10/31 09:19:57;;;;;;;0.90;0.00;;;;;;;13.73;85.89;97558.34;6277002;22;20011;-73
2021/10/31 09:22:38;;;;;;;0.52;0.13;;;;;;;13.67;84.87;97568.03;6225066;22;20060;-72
2021/10/31 09:25:07;;;;;;;1.33;0.20;;;;;;;13.44;84.62;97582.38;6302433;22;20041;-74
2021/10/31 09:27:39;;;;;;;0.30;0.15;;;;;;;13.17;85.06;97564.00;6246956;22;20003;-73
2021/10/31 09:30:08;;;;;;;0.63;0.20;;;;;;;12.91;84.71;97574.34;6275622;22;20062;-75
2021/10/31 09:32:39;;;;;;;3.08;0.30;;;;;;;12.86;84.72;97582.00;6297963;22;20033;-74
2021/10/31 09:35:05;;;;;;;1.65;0.20;;;;;;;12.83;84.80;97604.66;6244773;22;20022;-73
2021/10/31 09:37:31;;;;;;;3.88;0.40;;;;;;;12.78;84.50;97613.16;6271207;22;20072;-74
2021/10/31 09:40:02;;;;;;;2.42;0.32;;;;;;;12.59;84.76;97644.72;6302504;22;20003;-74
2021/10/31 09:43:01;;;;;;;3.75;0.20;;;;;;;13.23;85.82;97631.22;6271255;22;20068;-76
2021/10/31 09:46:05;;;;;;;;;;;;;;;;;;;;;
2021/10/31 09:48:50;;;;;;;;;;;;;;;;;;;;;
2021/10/31 09:51:35;;;;;;;;;;;;;;;;;;;;;
2021/10/31 09:54:01;;;;;;;11.85;0.57;;;;;;;16.23;74.12;97664.56;6300656;22;20697;-74
2021/10/31 09:56:36;;;;;;;10.98;0.88;;;;;;;16.67;70.27;97668.72;6301584;22;20026;-77
2021/10/31 09:59:09;;;;;;;2.85;0.73;;;;;;;17.14;70.33;97696.91;6273638;22;20027;-77
2021/10/31 10:01:56;;;;;;;4.20;0.52;;;;;;;17.51;68.95;97690.63;6276758;22;20029;-76
2021/10/31 10:04:58;;;;;;;4.10;0.82;;;;;;;17.77;66.24;97664.03;6304072;22;20027;-77
2021/10/31 10:07:33;;;;;;;;;;;;;;;;;;;;;
2021/10/31 10:10:24;;;;;;;5.22;0.95;;;;;;;17.95;61.11;97702.94;6304529;22;20079;-77
2021/10/31 10:13:05;;;;;;;;;;;;;;;;;;;;;
2021/10/31 10:15:46;;;;;;;;;;;;;;;;;;;;;
2021/10/31 10:18:35;;;;;;;2.35;0.70;;;;;;;18.43;61.41;97696.59;6305229;22;20454;-74
2021/10/31 10:21:36;;;;;;;6.68;1.42;;;;;;;18.91;57.22;97724.19;6303230;22;20410;-75
2021/10/31 10:24:10;;;;;;;7.05;0.70;;;;;;;18.75;59.59;97726.41;6217128;22;20544;-72
2021/10/31 10:29:51;;;;;;;3.28;0.80;;;;;;;18.79;59.22;97727.22;6280443;22;20007;-76
2021/10/31 10:32:53;;;;;;;3.78;0.85;;;;;;;19.22;61.11;97724.72;6280219;22;20055;-78
2021/10/31 10:35:39;;;;;;;;;;;;;;;;;;;;;
2021/10/31 10:38:27;;;;;;;6.65;1.20;;;;;;;18.56;59.36;97724.72;6313458;22;20421;-77
2021/10/31 10:40:54;;;;;;;2.88;0.65;;;;;;;17.98;61.82;97729.03;6277132;22;20011;-76
2021/10/31 10:43:41;;;;;;;5.90;1.30;;;;;;;18.01;63.46;97747.63;6277873;22;20373;-78
2021/10/31 10:46:13;;;;;;;7.75;1.08;;;;;;;18.27;60.99;97733.59;6235401;22;20469;-76
2021/10/31 10:49:04;;;;;;;4.57;0.95;;;;;;;18.32;58.21;97760.13;6285479;22;20006;-76
2021/10/31 10:51:38;;;;;;;5.93;1.17;;;;;;;18.58;58.10;97737.00;6284308;22;20027;-76
2021/10/31 10:54:40;;;;;;;7.80;1.38;;;;;;;19.52;55.77;97740.25;6256875;22;20007;-77
2021/10/31 11:01:02;;;;;;;13.18;1.70;;;;;;;20.17;51.07;97735.63;6281576;22;20326;-75
2021/10/31 11:03:40;;;;;;;4.68;1.08;;;;;;;20.27;46.97;97756.25;6255210;22;20061;-77
2021/10/31 11:06:54;;;;;;;6.35;1.17;;;;;;;20.13;47.21;97731.28;6276369;22;20079;-75
2021/10/31 11:17:54;;;;;;;;;;;;;;;;;;;;;
2021/10/31 11:20:22;;;;;;;2.83;0.85;;;;;;;20.39;44.16;97738.41;5888330;24;20076;-78
2021/10/31 11:22:51;;;;;;;8.85;1.50;;;;;;;20.77;42.78;97732.44;5917021;24;20008;-78
2021/10/31 11:25:22;;;;;;;5.10;1.25;;;;;;;21.33;41.87;97741.78;6002783;23;20022;-75
2021/10/31 11:28:14;;;;;;;;;;;;;;;;;;;;;
2021/10/31 11:31:05;;;;;;;;;;;;;;;;;;;;;
2021/10/31 11:33:40;;;;;;;3.35;1.27;;;;;;;21.34;40.02;97754.47;6303471;22;20078;-75
2021/10/31 11:36:06;;;;;;;3.73;1.47;;;;;;;21.68;40.32;97759.50;6274099;22;20061;-77
2021/10/31 11:38:38;;;;;;;4.97;1.45;;;;;;;21.84;39.11;97747.09;6276578;22;20019;-78
2021/10/31 11:41:38;;;;;;;4.50;1.02;;;;;;;21.78;39.92;97775.34;6252595;22;20071;-78
2021/10/31 11:44:30;;;;;;;10.07;1.83;;;;;;;21.70;39.74;97765.47;6267680;22;20086;-78
2021/10/31 11:48:01;;;;;;;;;;;;;;;;;;;;;
2021/10/31 11:50:35;;;;;;;1.95;1.20;;;;;;;19.49;43.17;97761.22;6216555;23;20083;-75
2021/10/31 11:53:09;;;;;;;9.43;1.98;;;;;;;18.63;46.17;97758.78;6305112;22;20478;-78
2021/10/31 11:55:45;;;;;;;5.35;1.27;;;;;;;19.23;45.69;97726.31;6303891;22;20007;-75
2021/10/31 11:59:14;;;;;;;11.38;1.50;;;;;;;19.83;44.41;97743.50;6278083;22;20087;-78
2021/10/31 12:01:38;;;;;;;5.18;1.48;;;;;;;20.29;44.24;97767.72;6283455;22;20011;-75
2021/10/31 12:08:14;;;;;;;4.03;1.38;;;;;;;21.68;42.11;97756.72;6180229;23;20411;-76
2021/10/31 12:11:05;;;;;;;11.27;1.67;;;;;;;21.55;41.70;97744.50;6035928;23;20324;-76
2021/10/31 12:13:58;;;;;;;;;;;;;;;;;;;;;
2021/10/31 12:16:52;;;;;;;13.55;2.03;;;;;;;19.56;43.93;97726.41;6308633;22;20019;-75
2021/10/31 12:23:27;;;;;;;;;;;;;;;17.31;56.95;97758.28;6180866;23;20012;-76
2021/10/31 12:29:35;;;;;;;6.00;1.30;;;;;;;19.24;49.12;97708.47;6277391;22;20011;-77
2021/10/31 12:32:22;;;;;;;4.82;1.42;;;;;;;20.47;46.03;97708.66;6270765;22;20057;-76
2021/10/31 12:38:43;;;;;;;13.55;1.48;;;;;;;20.28;42.72;97738.41;6084294;23;20220;-76
2021/10/31 12:44:33;;;;;;;8.13;1.98;;;;;;;18.82;47.71;97729.22;6181448;23;20012;-74
2021/10/31 12:48:23;;;;;;;14.63;1.92;;;;;;;18.31;46.15;97692.13;6148479;23;20004;-74
2021/10/31 12:50:34;;;;;;;5.60;1.73;;;;;;;18.49;46.74;97731.00;6159090;23;20067;-76
2021/10/31 12:53:48;;;;;;;;;;;;;;;;;;;;;
2021/10/31 13:00:05;;;;;;;;;;;;;;;;;;;;;
2021/10/31 13:03:07;;;;;;;;;;;;;;;;;;;;;
2021/10/31 13:05:44;;;;;;;5.85;1.23;;;;;;;15.41;59.96;97730.06;6181354;23;20076;-76
2021/10/31 13:11:26;;;;;;;;;;;;;;;;;;;;;
2021/10/31 13:13:58;;;;;;;9.20;1.20;;;;;;;15.13;60.44;97771.56;6259220;22;20035;-82
2021/10/31 13:17:06;;;;;;;8.20;1.25;;;;;;;14.82;59.88;97749.31;6257188;22;20004;-77
2021/10/31 13:19:52;;;;;;;;;;;;;;;;;;;;;
2021/10/31 13:22:25;;;;;;;1.25;0.30;;;;;;;18.33;50.93;97783.06;6272353;22;20074;-75
2021/10/31 13:24:58;;;;;;;3.47;0.70;;;;;;;19.76;45.56;97796.16;6273122;22;20530;-74
2021/10/31 13:27:31;;;;;;;4.45;0.38;;;;;;;20.47;43.39;97778.03;6274594;22;20078;-74
2021/10/31 13:29:59;;;;;;;4.15;0.82;;;;;;;20.62;41.72;97781.59;6274075;22;20000;-73
2021/10/31 13:32:27;;;;;;;1.55;0.98;;;;;;;19.55;43.01;97783.78;6273606;22;20049;-71
2021/10/31 13:34:54;;;;;;;7.15;0.68;;;;;;;19.19;44.81;97790.00;6272838;22;20010;-74
2021/10/31 13:37:26;;;;;;;2.38;0.90;;;;;;;19.17;44.00;97788.78;6272361;22;20050;-72
2021/10/31 13:40:02;;;;;;;5.70;0.85;;;;;;;18.07;46.21;97793.09;6255550;22;20026;-73
2021/10/31 13:42:33;;;;;;;3.05;0.88;;;;;;;16.85;49.11;97779.34;6302236;22;19999;-75
2021/10/31 13:45:02;;;;;;;1.98;0.90;;;;;;;16.26;51.34;97817.44;6279794;22;20009;-72
2021/10/31 13:47:40;;;;;;;2.70;1.10;;;;;;;15.60;53.52;97792.56;6304498;22;20066;-73
2021/10/31 13:50:38;;;;;;;4.10;0.90;;;;;;;15.21;55.48;97814.59;6255763;22;20011;-75
2021/10/31 13:53:10;;;;;;;7.65;1.08;;;;;;;15.05;56.98;97817.38;6256198;22;20003;-73
2021/10/31 13:55:39;;;;;;;3.03;0.65;;;;;;;15.19;66.21;97800.41;6312067;22;20052;-74
2021/10/31 13:58:18;;;;;;;;;;;;;;;;;;;;;
2021/10/31 14:00:46;;;;;;;8.45;0.95;;;;;;;15.00;72.09;97831.44;6308217;22;20190;-75
2021/10/31 14:03:20;;;;;;;2.67;1.05;;;;;;;14.51;75.73;97829.09;6318127;22;20007;-77
2021/10/31 14:06:20;;;;;;;5.78;0.90;;;;;;;15.21;76.34;97813.81;6317410;22;19999;-75
2021/10/31 14:08:45;;;;;;;8.43;1.10;;;;;;;16.04;73.56;97816.25;6328831;22;19991;-74
2021/10/31 14:14:44;;;;;;;14.32;1.08;;;;;;;18.36;69.09;97812.72;6320948;22;20011;-74
2021/10/31 14:17:40;;;;;;;4.05;0.90;;;;;;;19.51;67.24;97825.38;6278478;22;20004;-73
2021/10/31 14:20:14;;;;;;;7.25;1.52;;;;;;;20.01;65.13;97808.13;6251928;22;20036;-73
2021/10/31 14:23:20;;;;;;;;;;;;;;;;;;;;;
2021/10/31 14:25:57;;;;;;;;;;;;;;;;;;;;;
2021/10/31 14:28:43;;;;;;;3.88;0.75;;;;;;;21.18;50.65;97820.84;6309888;22;20038;-73
2021/10/31 14:31:20;;;;;;;1.98;0.38;;;;;;;21.41;48.48;97825.94;6285630;22;20003;-75
2021/10/31 14:34:16;;;;;;;6.90;0.60;;;;;;;21.56;44.06;97807.25;6257087;22;20003;-75
2021/10/31 14:36:44;;;;;;;3.10;1.35;;;;;;;21.07;43.73;97857.78;6283774;22;19995;-72
2021/10/31 14:39:27;;;;;;;;;;;;;;;;;;;;;
2021/10/31 14:42:20;;;;;;;2.88;1.00;;;;;;;19.99;44.22;97871.53;6305850;22;20077;-76
2021/10/31 14:45:05;;;;;;;;;;;;;;;;;;;;;
2021/10/31 14:55:15;;;;;;;8.20;1.27;;;;;;;21.05;40.39;97848.25;6310009;22;20034;-79
2021/10/31 16:08:44;;;;;;;5.40;0.85;;;;;;;13.00;57.71;97878.66;6142306;22;20077;-76
2021/10/31 16:12:40;;;;;;;;;;;;;;;;;;;;;
2021/10/31 18:08:53;;;;;;;7.00;1.65;;;;;;;10.94;63.43;97930.81;6041901;23;19920;-72
2021/10/31 18:19:03;;;;;;;4.80;1.10;;;;;;;11.02;63.03;97923.69;6065147;23;20402;-75
2021/10/31 18:21:47;;;;;;;11.82;1.75;;;;;;;11.06;62.49;97938.31;6068319;23;20026;-71
2021/10/31 18:25:13;;;;;;;12.27;1.42;;;;;;;10.98;63.03;97936.41;6097195;23;20005;-72
2021/10/31 18:28:21;;;;;;;;;;;;;;;;;;;;;
2021/10/31 18:49:55;;;;;;;9.10;1.20;;;;;;;10.85;66.13;97938.28;5794576;24;20460;-72
2021/10/31 18:56:27;;;;;;;17.40;1.40;;;;;;;11.04;65.82;97951.53;5742991;24;20032;-72
2021/10/31 18:59:31;;;;;;;;;;;;;;;;;;;;;
2021/10/31 19:02:34;;;;;;;7.70;1.80;;;;;;;10.80;66.11;97932.97;5968645;23;20067;-72
2021/10/31 19:12:58;;;;;;;4.68;0.80;;;;;;;10.79;65.72;97942.28;5989404;24;20015;-73
2021/10/31 19:15:42;;;;;;;6.22;0.93;;;;;;;10.73;65.65;97916.28;6077732;23;20019;-71
2021/10/31 19:18:26;;;;;;;2.95;1.08;;;;;;;10.75;65.69;97933.97;6219404;22;19997;-72